Time;durP1;ratioP1;P1;durP2;ratioP2;P2;SDS_P1;SDS_P2;PMS_P1;PMS_P2;Temp;Humidity;BMP_temperature;BMP_pressure;BME280_temperature;BME280_humidity;BME280_pressure;Samples;Min_cycle;Max_cycle;Signal;HPM_P1;HPM_P2
2023/12/05 00:00:42;;;;;;;16.23;9.60;;;1.60;99.90;;;;;;6211312;23;20445;-69
2023/12/05 00:03:08;;;;;;;17.25;9.82;;;1.70;99.90;;;;;;6211325;23;20024;-69
2023/12/05 00:05:34;;;;;;;17.13;10.50;;;1.60;99.90;;;;;;6210272;23;20632;-69
2023/12/05 00:07:59;;;;;;;19.75;10.77;;;1.60;99.90;;;;;;6210775;23;20052;-69
2023/12/05 00:10:25;;;;;;;20.27;11.40;;;1.60;99.90;;;;;;6211036;23;20020;-69
2023/12/05 00:12:51;;;;;;;16.38;10.63;;;1.60;99.90;;;;;;6210725;23;20048;-69
2023/12/05 00:15:16;;;;;;;15.57;9.77;;;1.60;99.90;;;;;;6211137;23;20051;-69
2023/12/05 00:17:42;;;;;;;18.98;11.18;;;1.60;99.90;;;;;;6211129;23;20063;-69
2023/12/05 00:20:08;;;;;;;18.92;10.48;;;1.60;99.90;;;;;;6211550;23;20100;-69
2023/12/05 00:22:35;;;;;;;15.35;9.93;;;1.60;99.90;;;;;;6210650;23;20024;-69
2023/12/05 00:25:02;;;;;;;16.95;10.40;;;1.50;99.90;;;;;;6211074;23;20020;-69
2023/12/05 00:27:28;;;;;;;16.15;10.52;;;1.50;99.90;;;;;;6210737;23;20055;-69
2023/12/05 00:29:54;;;;;;;14.57;9.48;;;1.50;99.90;;;;;;6210795;23;20353;-69
2023/12/05 00:32:20;;;;;;;18.20;10.93;;;1.50;99.90;;;;;;6183748;23;20069;-69
2023/12/05 00:34:46;;;;;;;19.50;11.57;;;1.50;99.90;;;;;;6210757;23;20031;-69
2023/12/05 00:37:11;;;;;;;18.75;11.32;;;1.60;99.90;;;;;;6210466;23;20032;-69
2023/12/05 00:39:37;;;;;;;15.80;9.70;;;1.60;99.90;;;;;;6184423;23;20027;-69
2023/12/05 00:42:03;;;;;;;18.27;11.75;;;1.50;99.90;;;;;;6210527;23;20119;-68
2023/12/05 00:44:29;;;;;;;17.25;10.95;;;1.60;99.90;;;;;;6210929;23;20016;-68
2023/12/05 00:46:54;;;;;;;19.60;11.40;;;1.60;99.90;;;;;;6184026;23;20044;-68
2023/12/05 00:49:20;;;;;;;18.08;11.48;;;1.50;99.90;;;;;;6183595;23;20031;-68
2023/12/05 00:51:46;;;;;;;20.55;11.10;;;1.60;99.90;;;;;;6210813;23;20024;-67
2023/12/05 00:54:11;;;;;;;19.00;11.32;;;1.60;99.90;;;;;;6210799;23;20349;-68
2023/12/05 00:56:37;;;;;;;18.42;11.00;;;1.60;99.90;;;;;;6210775;23;20029;-67
2023/12/05 00:59:03;;;;;;;17.05;11.18;;;1.60;99.90;;;;;;6184176;23;20016;-68
2023/12/05 01:01:28;;;;;;;19.55;12.10;;;1.50;99.90;;;;;;6210424;23;20021;-67
2023/12/05 01:03:56;;;;;;;21.88;12.65;;;1.60;99.90;;;;;;6210566;23;20016;-67
2023/12/05 01:06:23;;;;;;;19.52;11.95;;;1.50;99.90;;;;;;6183812;23;20031;-67
2023/12/05 01:08:49;;;;;;;19.38;11.68;;;1.60;99.90;;;;;;6210515;23;20463;-67
2023/12/05 01:11:16;;;;;;;17.33;11.35;;;1.50;99.90;;;;;;6209959;23;20064;-67
2023/12/05 01:13:45;;;;;;;19.85;11.27;;;1.50;99.90;;;;;;6210443;23;20066;-67
2023/12/05 01:16:12;;;;;;;18.17;10.70;;;1.50;99.90;;;;;;6210886;23;20069;-67
2023/12/05 01:18:37;;;;;;;22.15;13.15;;;1.50;99.90;;;;;;6210917;23;20059;-68
2023/12/05 01:21:04;;;;;;;17.60;10.63;;;1.50;99.90;;;;;;6211226;23;20032;-68
2023/12/05 01:23:29;;;;;;;17.88;10.73;;;1.50;99.90;;;;;;6183658;23;20445;-68
2023/12/05 01:25:55;;;;;;;20.73;12.50;;;1.50;99.90;;;;;;6184147;23;20083;-68
2023/12/05 01:28:21;;;;;;;19.23;11.80;;;1.50;99.90;;;;;;6210947;23;20009;-68
2023/12/05 01:30:46;;;;;;;17.48;11.45;;;1.50;99.90;;;;;;6210864;23;20020;-68
2023/12/05 01:33:12;;;;;;;19.13;11.90;;;1.60;99.90;;;;;;6210615;23;20020;-68
2023/12/05 01:35:38;;;;;;;18.10;11.30;;;1.60;99.90;;;;;;6210608;23;20334;-68
2023/12/05 01:38:03;;;;;;;17.77;11.05;;;1.50;99.90;;;;;;6210424;23;20035;-66
2023/12/05 01:40:29;;;;;;;20.40;12.50;;;1.50;99.90;;;;;;6183899;23;20112;-69
2023/12/05 01:42:55;;;;;;;17.45;10.95;;;1.60;99.90;;;;;;6210799;23;20380;-67
2023/12/05 01:45:21;;;;;;;21.80;11.52;;;1.50;99.90;;;;;;6210805;23;20357;-67
2023/12/05 01:47:48;;;;;;;18.17;11.98;;;1.50;99.90;;;;;;6210225;23;20504;-67
2023/12/05 01:50:19;;;;;;;21.88;12.15;;;1.60;99.90;;;;;;6210250;23;20036;-67
2023/12/05 01:52:49;;;;;;;18.90;11.27;;;1.60;99.90;;;;;;6210529;23;20029;-68
2023/12/05 01:55:15;;;;;;;17.92;11.70;;;1.60;99.90;;;;;;6211163;23;20071;-67
2023/12/05 01:57:42;;;;;;;21.88;13.45;;;1.60;99.90;;;;;;6210788;23;20017;-68
2023/12/05 02:00:08;;;;;;;18.33;11.63;;;1.60;99.90;;;;;;6210820;23;20111;-66
2023/12/05 02:02:38;;;;;;;19.80;12.40;;;1.50;99.90;;;;;;6211796;23;20048;-69
2023/12/05 02:05:04;;;;;;;19.05;11.40;;;1.50;99.90;;;;;;6211908;23;20031;-69
2023/12/05 02:07:31;;;;;;;17.23;10.90;;;1.50;99.90;;;;;;6211762;23;20020;-69
2023/12/05 02:09:57;;;;;;;19.73;11.98;;;1.50;99.90;;;;;;6185528;23;20024;-69
2023/12/05 02:12:22;;;;;;;18.67;11.70;;;1.50;99.90;;;;;;6212201;23;20021;-69
2023/12/05 02:14:48;;;;;;;17.67;11.77;;;1.60;99.90;;;;;;6212506;23;20345;-69
2023/12/05 02:17:26;;;;;;;20.08;11.93;;;1.60;99.90;;;;;;6212405;23;20016;-69
2023/12/05 02:20:24;;;;;;;19.98;12.02;;;1.60;99.90;;;;;;6212067;23;20055;-69
2023/12/05 02:22:59;;;;;;;19.33;11.80;;;1.50;99.90;;;;;;6153801;23;20402;-69
2023/12/05 02:25:52;;;;;;;19.98;12.52;;;1.60;99.90;;;;;;6212124;23;20029;-69
2023/12/05 02:28:18;;;;;;;19.17;11.80;;;1.60;99.90;;;;;;6212250;23;20027;-69
2023/12/05 02:30:44;;;;;;;19.92;11.70;;;1.60;99.90;;;;;;6212445;23;20314;-69
2023/12/05 02:33:10;;;;;;;19.13;12.25;;;1.60;99.90;;;;;;6212069;23;20024;-69
2023/12/05 02:35:37;;;;;;;19.75;12.13;;;1.60;99.90;;;;;;6185514;23;20017;-68
2023/12/05 02:38:17;;;;;;;18.05;11.90;;;1.60;99.90;;;;;;6211836;23;20032;-67
2023/12/05 02:40:51;;;;;;;20.02;12.52;;;1.60;99.90;;;;;;6212439;23;20021;-67
2023/12/05 02:43:24;;;;;;;18.45;11.65;;;1.70;99.90;;;;;;6212103;23;20019;-67
2023/12/05 02:45:52;;;;;;;18.38;12.05;;;1.60;99.90;;;;;;6212032;23;20349;-67
2023/12/05 02:48:19;;;;;;;19.27;12.52;;;1.60;99.90;;;;;;6211170;23;20016;-67
2023/12/05 02:50:45;;;;;;;17.50;11.95;;;1.60;99.90;;;;;;6211675;23;20020;-68
2023/12/05 02:53:11;;;;;;;19.23;11.57;;;1.70;99.90;;;;;;6184751;23;20027;-68
2023/12/05 02:55:38;;;;;;;18.27;11.93;;;1.70;99.90;;;;;;6211906;23;20021;-68
2023/12/05 02:58:03;;;;;;;18.27;11.18;;;1.60;99.90;;;;;;6184831;23;20058;-68
2023/12/05 03:00:29;;;;;;;17.90;11.90;;;1.60;99.90;;;;;;6211421;23;20103;-68
2023/12/05 03:02:55;;;;;;;17.25;11.48;;;1.60;99.90;;;;;;6211275;23;20021;-68
2023/12/05 03:05:20;;;;;;;19.27;12.50;;;1.60;99.90;;;;;;6211554;23;20012;-68
2023/12/05 03:07:46;;;;;;;16.65;11.48;;;1.60;99.90;;;;;;6211861;23;20020;-68
2023/12/05 03:10:12;;;;;;;17.15;12.27;;;1.70;99.90;;;;;;6184574;23;20421;-68
2023/12/05 03:12:37;;;;;;;18.05;11.20;;;1.70;99.90;;;;;;6211659;23;20028;-68
2023/12/05 03:15:04;;;;;;;18.25;11.77;;;1.60;99.90;;;;;;6211623;23;20724;-68
2023/12/05 03:17:29;;;;;;;18.58;11.68;;;1.70;99.90;;;;;;6211894;23;20028;-67
2023/12/05 03:19:55;;;;;;;21.58;13.05;;;1.70;99.90;;;;;;6211717;23;20712;-68
2023/12/05 03:22:21;;;;;;;19.20;12.75;;;1.70;99.90;;;;;;6211601;23;20126;-68
2023/12/05 03:24:46;;;;;;;19.95;12.15;;;1.70;99.90;;;;;;6211168;23;20020;-67
2023/12/05 03:27:12;;;;;;;19.15;11.68;;;1.70;99.90;;;;;;6211150;23;20106;-68
2023/12/05 03:29:38;;;;;;;20.80;12.40;;;1.70;99.90;;;;;;6211345;23;20075;-68
2023/12/05 03:32:04;;;;;;;19.15;12.20;;;1.70;99.90;;;;;;6183921;23;20029;-68
2023/12/05 03:34:30;;;;;;;17.83;11.85;;;1.60;99.90;;;;;;6211216;23;20393;-68
2023/12/05 03:36:56;;;;;;;18.90;12.75;;;1.70;99.90;;;;;;6211473;23;20079;-68
2023/12/05 03:39:21;;;;;;;19.77;12.32;;;1.70;99.90;;;;;;6211420;23;20020;-68
2023/12/05 03:41:47;;;;;;;19.80;12.32;;;1.70;99.90;;;;;;6184398;23;20017;-68
2023/12/05 03:44:13;;;;;;;21.40;13.75;;;1.70;99.90;;;;;;6211394;23;20024;-68
2023/12/05 03:46:39;;;;;;;20.80;13.23;;;1.70;99.90;;;;;;6211305;23;20012;-68
2023/12/05 03:49:04;;;;;;;21.27;12.98;;;1.70;99.90;;;;;;6210909;23;20029;-68
2023/12/05 03:51:30;;;;;;;20.73;13.32;;;1.70;99.90;;;;;;6211304;23;20487;-68
2023/12/05 03:53:56;;;;;;;24.02;13.93;;;1.70;99.90;;;;;;6211281;23;20454;-68
2023/12/05 03:56:22;;;;;;;21.17;13.18;;;1.70;99.90;;;;;;6211691;23;20091;-67
2023/12/05 03:58:48;;;;;;;20.95;12.93;;;1.70;99.90;;;;;;6211279;23;20066;-68
2023/12/05 04:01:15;;;;;;;20.48;12.95;;;1.70;99.90;;;;;;6211275;23;20069;-68
2023/12/05 04:03:41;;;;;;;22.50;12.60;;;1.70;99.90;;;;;;6210983;23;20375;-68
2023/12/05 04:06:07;;;;;;;20.33;11.98;;;1.70;99.90;;;;;;6184448;23;20099;-68
2023/12/05 04:08:32;;;;;;;22.08;12.82;;;1.70;99.90;;;;;;6184560;23;20074;-68
2023/12/05 04:10:58;;;;;;;21.17;13.82;;;1.70;99.90;;;;;;6184242;23;20396;-68
2023/12/05 04:13:24;;;;;;;21.40;13.80;;;1.70;99.90;;;;;;6211117;23;20359;-68
2023/12/05 04:15:49;;;;;;;22.13;14.20;;;1.70;99.90;;;;;;6210846;23;20123;-68
2023/12/05 04:18:15;;;;;;;21.75;13.50;;;1.70;99.90;;;;;;6184216;23;20059;-68
2023/12/05 04:20:41;;;;;;;23.67;14.27;;;1.70;99.90;;;;;;6211166;23;20348;-68
2023/12/05 04:23:06;;;;;;;21.17;13.35;;;1.70;99.90;;;;;;6211087;23;20051;-68
2023/12/05 04:25:32;;;;;;;21.27;13.07;;;1.70;99.90;;;;;;6210429;23;20092;-68
2023/12/05 04:27:58;;;;;;;22.05;14.15;;;1.70;99.90;;;;;;6211006;23;20016;-68
2023/12/05 04:30:23;;;;;;;25.27;15.32;;;1.70;99.90;;;;;;6211075;23;20062;-68
2023/12/05 04:32:49;;;;;;;23.90;15.10;;;1.70;99.90;;;;;;6210066;23;20074;-67
2023/12/05 04:35:15;;;;;;;23.33;15.10;;;1.80;99.90;;;;;;6211226;23;20027;-68
2023/12/05 04:37:41;;;;;;;24.55;15.30;;;1.70;99.90;;;;;;6211081;23;20015;-68
2023/12/05 04:40:08;;;;;;;20.52;13.73;;;1.70;99.90;;;;;;6210490;23;20453;-68
2023/12/05 04:42:34;;;;;;;23.75;13.40;;;1.70;99.90;;;;;;6210715;23;20031;-68
2023/12/05 04:44:59;;;;;;;24.42;14.35;;;1.60;99.90;;;;;;6210525;23;20060;-68
2023/12/05 04:47:25;;;;;;;25.35;14.48;;;1.60;99.90;;;;;;6210786;23;20035;-68
2023/12/05 04:49:51;;;;;;;24.33;14.30;;;1.70;99.90;;;;;;6210329;23;20100;-68
2023/12/05 04:52:17;;;;;;;27.55;15.20;;;1.70;99.90;;;;;;6210862;23;20064;-68
2023/12/05 04:54:42;;;;;;;24.33;15.00;;;1.70;99.90;;;;;;6183753;23;20020;-68
2023/12/05 04:57:08;;;;;;;27.65;13.75;;;1.70;99.90;;;;;;6210743;23;20040;-68
2023/12/05 04:59:34;;;;;;;23.23;14.23;;;1.60;99.90;;;;;;6210643;23;20021;-67
2023/12/05 05:01:59;;;;;;;24.20;14.05;;;1.70;99.90;;;;;;6210735;23;20028;-67
2023/12/05 05:04:25;;;;;;;25.90;15.82;;;1.60;99.90;;;;;;6211321;23;20085;-67
2023/12/05 05:06:51;;;;;;;27.45;15.98;;;1.60;99.90;;;;;;6210780;23;20013;-68
2023/12/05 05:09:16;;;;;;;28.30;15.77;;;1.70;99.90;;;;;;6210943;23;20024;-68
2023/12/05 05:11:42;;;;;;;26.98;16.33;;;1.70;99.90;;;;;;6210679;23;20322;-68
2023/12/05 05:14:08;;;;;;;26.27;15.52;;;1.70;99.90;;;;;;6183720;23;20078;-68
2023/12/05 05:16:34;;;;;;;25.88;16.02;;;1.60;99.90;;;;;;6210197;23;20020;-68
2023/12/05 05:19:00;;;;;;;24.85;16.23;;;1.70;99.90;;;;;;6210806;23;20032;-68
2023/12/05 05:21:25;;;;;;;28.73;16.05;;;1.70;99.90;;;;;;6210828;23;20537;-67
2023/12/05 05:23:51;;;;;;;25.95;15.35;;;1.70;99.90;;;;;;6210524;23;20348;-68
2023/12/05 05:26:17;;;;;;;27.50;17.27;;;1.70;99.90;;;;;;6210700;23;20491;-68
2023/12/05 05:28:42;;;;;;;30.83;16.67;;;1.70;99.90;;;;;;6183645;23;20040;-68
2023/12/05 05:31:08;;;;;;;26.25;15.90;;;1.70;99.90;;;;;;6210730;23;20744;-68
2023/12/05 05:33:34;;;;;;;29.70;17.45;;;1.70;99.90;;;;;;6209996;23;20016;-68
2023/12/05 05:35:59;;;;;;;27.98;16.55;;;1.70;99.90;;;;;;6210634;23;20116;-68
2023/12/05 05:38:25;;;;;;;29.65;16.73;;;1.70;99.90;;;;;;6212568;23;20024;-68
2023/12/05 05:41:02;;;;;;;29.73;17.60;;;1.70;99.90;;;;;;6212625;23;20016;-68
2023/12/05 05:43:28;;;;;;;29.60;16.70;;;1.70;99.90;;;;;;6212672;23;20024;-68
2023/12/05 05:45:53;;;;;;;28.77;16.58;;;1.70;99.90;;;;;;6212446;23;20052;-68
2023/12/05 05:48:19;;;;;;;26.83;16.08;;;1.70;99.90;;;;;;6212607;23;20032;-68
2023/12/05 05:50:45;;;;;;;27.85;16.83;;;1.70;99.90;;;;;;6212147;23;20330;-68
2023/12/05 05:53:10;;;;;;;31.75;17.65;;;1.70;99.90;;;;;;6212588;23;20020;-68
2023/12/05 05:55:36;;;;;;;27.27;16.63;;;1.70;99.90;;;;;;6212937;23;20542;-68
2023/12/05 05:58:02;;;;;;;28.88;17.02;;;1.70;99.90;;;;;;6212668;23;20019;-68
2023/12/05 06:00:27;;;;;;;30.05;17.35;;;1.70;99.90;;;;;;6212184;23;20020;-68
2023/12/05 06:02:53;;;;;;;29.20;16.23;;;1.70;99.90;;;;;;6185773;23;20083;-68
2023/12/05 06:05:19;;;;;;;30.63;17.52;;;1.70;99.90;;;;;;6213062;23;20126;-68
2023/12/05 06:07:44;;;;;;;28.40;17.60;;;1.70;99.90;;;;;;6212646;23;20024;-68
2023/12/05 06:10:10;;;;;;;30.10;17.40;;;1.70;99.90;;;;;;6212273;23;20333;-68
2023/12/05 06:12:36;;;;;;;33.78;17.73;;;1.70;99.90;;;;;;6212295;23;20099;-68
2023/12/05 06:15:01;;;;;;;27.30;16.83;;;1.70;99.90;;;;;;6212131;23;20027;-68
2023/12/05 06:17:27;;;;;;;32.88;18.25;;;1.70;99.90;;;;;;6212390;23;20323;-68
2023/12/05 06:19:53;;;;;;;32.30;17.33;;;1.70;99.90;;;;;;6212880;23;20076;-68
2023/12/05 06:22:18;;;;;;;29.63;17.90;;;1.70;99.90;;;;;;6212607;23;20025;-68
2023/12/05 06:24:44;;;;;;;30.05;16.98;;;1.70;99.90;;;;;;6212707;23;20024;-68
2023/12/05 06:27:10;;;;;;;31.15;18.48;;;1.80;99.90;;;;;;6212344;23;20028;-68
2023/12/05 06:29:35;;;;;;;31.30;17.83;;;1.80;99.90;;;;;;6212152;23;20501;-68
2023/12/05 06:32:01;;;;;;;33.28;18.92;;;1.70;99.90;;;;;;6211762;23;20593;-69
2023/12/05 06:34:28;;;;;;;30.85;18.00;;;1.70;99.90;;;;;;6211944;23;20024;-69
2023/12/05 06:36:53;;;;;;;30.25;18.00;;;1.80;99.90;;;;;;6185152;23;20021;-70
2023/12/05 06:39:19;;;;;;;35.40;17.55;;;1.80;99.90;;;;;;6212296;23;20108;-69
2023/12/05 06:41:46;;;;;;;31.40;17.95;;;1.80;99.90;;;;;;6211982;23;20020;-70
2023/12/05 06:44:12;;;;;;;32.58;18.50;;;1.80;99.90;;;;;;6211742;23;20016;-70
2023/12/05 06:46:37;;;;;;;32.45;18.35;;;1.70;99.90;;;;;;6211983;23;20092;-68
2023/12/05 06:49:03;;;;;;;35.30;18.92;;;1.80;99.90;;;;;;6211518;23;20095;-68
2023/12/05 06:51:29;;;;;;;34.92;19.55;;;1.70;99.90;;;;;;6212008;23;20021;-68
2023/12/05 06:53:54;;;;;;;32.67;17.30;;;1.80;99.90;;;;;;6211692;23;20097;-68
2023/12/05 06:56:21;;;;;;;34.67;18.20;;;1.80;99.90;;;;;;6211969;23;20027;-67
2023/12/05 06:58:46;;;;;;;31.05;18.27;;;1.80;99.90;;;;;;6211806;23;20044;-68
2023/12/05 07:01:12;;;;;;;33.63;17.73;;;1.80;99.90;;;;;;6211661;23;20023;-67
2023/12/05 07:03:38;;;;;;;33.08;18.95;;;1.80;99.90;;;;;;6212026;23;20020;-67
2023/12/05 07:06:05;;;;;;;33.58;19.67;;;1.80;99.90;;;;;;6185132;23;20028;-67
2023/12/05 07:08:31;;;;;;;33.58;19.02;;;1.80;99.90;;;;;;6212037;23;20020;-68
2023/12/05 07:10:56;;;;;;;31.80;18.35;;;1.80;99.90;;;;;;6212170;23;20345;-67
2023/12/05 07:13:22;;;;;;;32.22;18.23;;;1.80;99.90;;;;;;6211207;23;20044;-68
2023/12/05 07:15:48;;;;;;;30.83;17.15;;;1.80;99.90;;;;;;6211635;23;20028;-67
2023/12/05 07:18:13;;;;;;;30.83;16.63;;;1.70;99.90;;;;;;6211264;23;20023;-67
2023/12/05 07:20:39;;;;;;;32.72;18.55;;;1.80;99.90;;;;;;6211487;23;20032;-68
2023/12/05 07:23:05;;;;;;;33.33;18.35;;;1.80;99.90;;;;;;6184391;23;20028;-67
2023/12/05 07:25:30;;;;;;;32.72;17.63;;;1.80;99.90;;;;;;6211471;23;20020;-67
2023/12/05 07:27:56;;;;;;;31.70;18.42;;;1.70;99.90;;;;;;6211279;23;20476;-68
2023/12/05 07:30:22;;;;;;;34.70;18.48;;;1.80;99.90;;;;;;6212062;23;20017;-67
2023/12/05 07:32:48;;;;;;;32.72;19.70;;;1.70;99.90;;;;;;6184575;23;20031;-67
2023/12/05 07:35:14;;;;;;;30.98;17.52;;;1.70;99.90;;;;;;6185197;23;20052;-68
2023/12/05 07:37:39;;;;;;;34.55;18.95;;;1.70;99.90;;;;;;6212291;23;20020;-68
2023/12/05 07:40:06;;;;;;;30.73;17.25;;;1.80;99.90;;;;;;6211489;23;20024;-68
2023/12/05 07:42:32;;;;;;;33.38;18.63;;;1.70;99.90;;;;;;6210810;23;20024;-68
2023/12/05 07:44:57;;;;;;;32.97;17.95;;;1.70;99.90;;;;;;6211113;23;20013;-68
2023/12/05 07:47:24;;;;;;;32.63;18.23;;;1.70;99.90;;;;;;6184449;23;20013;-68
2023/12/05 07:49:50;;;;;;;34.58;19.38;;;1.70;99.90;;;;;;6211050;23;20409;-67
2023/12/05 07:52:16;;;;;;;30.15;16.85;;;1.70;99.90;;;;;;6184217;23;20024;-67
2023/12/05 07:54:42;;;;;;;32.45;17.55;;;1.70;99.90;;;;;;6184402;23;20390;-67
2023/12/05 07:57:07;;;;;;;31.02;17.35;;;1.70;99.90;;;;;;6183950;23;20021;-68
2023/12/05 07:59:33;;;;;;;29.27;17.80;;;1.80;99.90;;;;;;6210585;23;20460;-67
2023/12/05 08:01:59;;;;;;;32.72;17.02;;;1.80;99.90;;;;;;6211231;23;20078;-68
2023/12/05 08:04:25;;;;;;;29.83;17.33;;;1.70;99.90;;;;;;6211156;23;20020;-67
2023/12/05 08:06:50;;;;;;;31.05;18.20;;;1.70;99.90;;;;;;6211144;23;20378;-67
2023/12/05 08:09:16;;;;;;;33.60;18.77;;;1.70;99.90;;;;;;6210883;23;20024;-67
2023/12/05 08:11:42;;;;;;;31.90;16.85;;;1.70;99.90;;;;;;6210436;23;20020;-67
2023/12/05 08:14:08;;;;;;;31.13;16.83;;;1.70;99.90;;;;;;6210875;23;20028;-67
2023/12/05 08:16:34;;;;;;;29.48;16.83;;;1.70;99.90;;;;;;6210787;23;20016;-67
2023/12/05 08:19:00;;;;;;;26.90;16.38;;;1.70;99.90;;;;;;6211163;23;20373;-67
2023/12/05 08:21:25;;;;;;;31.95;17.08;;;1.70;99.90;;;;;;6211035;23;20083;-67
2023/12/05 08:23:51;;;;;;;33.60;17.48;;;1.70;99.90;;;;;;6211153;23;20075;-68
2023/12/05 08:26:17;;;;;;;30.73;16.08;;;1.70;99.90;;;;;;6210380;23;20476;-67
2023/12/05 08:28:42;;;;;;;30.70;17.02;;;1.70;99.90;;;;;;6159289;23;20016;-67
2023/12/05 08:31:08;;;;;;;32.92;16.98;;;1.70;99.90;;;;;;6210839;23;20123;-67
2023/12/05 08:33:34;;;;;;;33.58;17.17;;;1.70;99.90;;;;;;6209878;23;20021;-68
2023/12/05 08:36:00;;;;;;;29.35;16.65;;;1.70;99.90;;;;;;6210612;23;20016;-68
2023/12/05 08:38:25;;;;;;;31.50;17.13;;;1.70;99.90;;;;;;6210195;23;20036;-67
2023/12/05 08:40:51;;;;;;;27.42;15.35;;;1.70;99.90;;;;;;6210613;23;20088;-67
2023/12/05 08:43:17;;;;;;;33.95;17.42;;;1.70;99.90;;;;;;6159131;23;20021;-67
2023/12/05 08:45:43;;;;;;;32.47;17.67;;;1.70;99.90;;;;;;6210776;23;20020;-67
2023/12/05 08:48:08;;;;;;;32.00;18.60;;;1.70;99.90;;;;;;6210733;23;20016;-68
2023/12/05 08:50:34;;;;;;;32.97;18.73;;;1.70;99.90;;;;;;6210551;23;20025;-67
2023/12/05 08:53:01;;;;;;;32.42;17.25;;;1.70;99.90;;;;;;6210481;23;20017;-68
2023/12/05 08:55:27;;;;;;;33.13;18.35;;;1.70;99.90;;;;;;6210914;23;20039;-67
2023/12/05 08:57:52;;;;;;;31.65;17.77;;;1.70;99.90;;;;;;6211379;23;20012;-68
2023/12/05 09:00:18;;;;;;;30.33;16.58;;;1.70;99.90;;;;;;6210498;23;20387;-67
2023/12/05 09:02:44;;;;;;;28.63;16.05;;;1.70;99.90;;;;;;6210804;23;20064;-67
2023/12/05 09:05:10;;;;;;;33.47;17.63;;;1.70;99.90;;;;;;6183450;23;20091;-68
2023/12/05 09:07:37;;;;;;;29.13;17.13;;;1.70;99.90;;;;;;6210023;23;20078;-67
2023/12/05 09:10:03;;;;;;;32.95;17.98;;;1.70;99.90;;;;;;6211019;23;20027;-68
2023/12/05 09:12:29;;;;;;;30.85;17.60;;;1.80;99.90;;;;;;6212378;23;20099;-68
2023/12/05 09:14:55;;;;;;;31.45;18.42;;;1.80;99.90;;;;;;6213201;23;20055;-68
2023/12/05 09:17:21;;;;;;;32.60;18.10;;;1.80;99.90;;;;;;6212773;23;20420;-68
2023/12/05 09:19:50;;;;;;;31.80;16.30;;;1.80;99.90;;;;;;6212815;23;20036;-67
2023/12/05 09:22:16;;;;;;;32.17;16.73;;;1.80;99.90;;;;;;6212042;23;20020;-66
2023/12/05 09:24:42;;;;;;;31.13;17.75;;;1.80;99.90;;;;;;6185817;23;20047;-68
2023/12/05 09:27:08;;;;;;;36.70;18.05;;;1.80;99.90;;;;;;6211588;23;20024;-67
2023/12/05 09:29:34;;;;;;;29.73;17.88;;;1.80;99.90;;;;;;6212537;23;20066;-68
2023/12/05 09:32:00;;;;;;;34.63;17.50;;;1.70;99.90;;;;;;6211915;23;20025;-68
2023/12/05 09:34:26;;;;;;;30.60;17.17;;;1.70;99.90;;;;;;6212456;23;20095;-67
2023/12/05 09:36:51;;;;;;;31.83;18.10;;;1.70;99.90;;;;;;6212001;23;20050;-68
2023/12/05 09:39:17;;;;;;;35.17;17.80;;;1.80;99.90;;;;;;6212328;23;20091;-68
2023/12/05 09:41:50;;;;;;;32.88;17.63;;;1.80;99.90;;;;;;6212700;23;20020;-68
2023/12/05 09:44:21;;;;;;;31.67;17.40;;;1.70;99.90;;;;;;6212770;23;20012;-67
2023/12/05 09:46:51;;;;;;;32.92;19.10;;;1.80;99.90;;;;;;6185668;23;20028;-68
2023/12/05 09:49:18;;;;;;;32.40;17.90;;;1.70;99.90;;;;;;6211847;23;20034;-68
2023/12/05 09:51:46;;;;;;;29.85;17.75;;;1.70;99.90;;;;;;6184680;23;20354;-68
2023/12/05 09:54:13;;;;;;;34.30;18.05;;;1.70;99.90;;;;;;6212045;23;20020;-68
2023/12/05 09:56:39;;;;;;;36.63;18.65;;;1.70;99.90;;;;;;6212230;23;20016;-68
2023/12/05 09:59:05;;;;;;;35.10;19.13;;;1.70;99.90;;;;;;6211166;23;20051;-69
2023/12/05 10:01:34;;;;;;;35.03;18.00;;;1.70;99.90;;;;;;6211562;23;20020;-69
2023/12/05 10:04:02;;;;;;;31.73;18.00;;;1.70;99.90;;;;;;6211597;23;20043;-68
2023/12/05 10:06:29;;;;;;;36.22;18.75;;;1.70;99.90;;;;;;6211776;23;20021;-68
2023/12/05 10:08:56;;;;;;;34.10;18.92;;;1.70;99.90;;;;;;6185134;23;20056;-69
2023/12/05 10:11:28;;;;;;;36.17;18.50;;;1.70;99.90;;;;;;6211508;23;20668;-68
2023/12/05 10:13:55;;;;;;;40.67;19.88;;;1.70;99.90;;;;;;6184933;23;20099;-69
2023/12/05 10:16:22;;;;;;;39.63;19.17;;;1.70;99.90;;;;;;6211861;23;20020;-69
2023/12/05 10:18:48;;;;;;;38.00;20.33;;;1.70;99.90;;;;;;6211999;23;20083;-69
2023/12/05 10:21:14;;;;;;;31.17;18.17;;;1.70;99.90;;;;;;6209458;23;20411;-68
2023/12/05 10:23:40;;;;;;;31.30;17.70;;;1.70;99.90;;;;;;6211148;23;20067;-68
2023/12/05 10:26:05;;;;;;;30.65;17.73;;;1.70;99.90;;;;;;6211674;23;20013;-68
2023/12/05 10:28:31;;;;;;;37.90;19.20;;;1.80;99.90;;;;;;6184994;23;20020;-68
2023/12/05 10:30:57;;;;;;;33.63;17.95;;;1.70;99.90;;;;;;6210582;23;20017;-68
2023/12/05 10:33:23;;;;;;;37.25;19.73;;;1.70;99.90;;;;;;6184361;23;20105;-68
2023/12/05 10:35:49;;;;;;;33.70;17.92;;;1.70;99.90;;;;;;6211137;23;20075;-68
2023/12/05 10:38:19;;;;;;;31.83;19.15;;;1.70;99.90;;;;;;6211335;23;20013;-70
2023/12/05 10:40:54;;;;;;;33.95;19.20;;;1.70;99.90;;;;;;6210991;23;20020;-69
2023/12/05 10:43:20;;;;;;;36.78;17.98;;;1.70;99.90;;;;;;6211531;23;20803;-69
2023/12/05 10:45:47;;;;;;;35.33;18.50;;;1.70;99.90;;;;;;6184857;23;20016;-69
2023/12/05 10:48:14;;;;;;;34.53;18.52;;;1.70;99.90;;;;;;6211674;23;20021;-69
2023/12/05 10:50:40;;;;;;;37.65;18.48;;;1.70;99.90;;;;;;6210962;23;20464;-68
2023/12/05 10:53:06;;;;;;;30.63;18.08;;;1.70;99.90;;;;;;6211628;23;20024;-69
2023/12/05 10:55:34;;;;;;;33.15;18.45;;;1.70;99.90;;;;;;6184840;23;20043;-69
2023/12/05 10:58:00;;;;;;;35.67;18.92;;;1.60;99.90;;;;;;6211229;23;20057;-69
2023/12/05 11:00:28;;;;;;;33.10;18.73;;;1.60;99.90;;;;;;6211607;23;20024;-69
2023/12/05 11:02:55;;;;;;;33.28;18.45;;;1.70;99.90;;;;;;6211500;23;20021;-69
2023/12/05 11:05:22;;;;;;;32.80;18.25;;;1.60;99.90;;;;;;6210794;23;20055;-69
2023/12/05 11:07:48;;;;;;;36.42;18.27;;;1.60;99.90;;;;;;6211110;23;20017;-69
2023/12/05 11:10:16;;;;;;;36.30;17.77;;;1.60;99.90;;;;;;6184727;23;20024;-69
2023/12/05 11:12:44;;;;;;;32.90;17.48;;;1.60;99.90;;;;;;6211500;23;20017;-69
2023/12/05 11:15:13;;;;;;;36.42;17.85;;;1.60;99.90;;;;;;6211934;23;20023;-69
2023/12/05 11:17:44;;;;;;;33.15;18.60;;;1.60;99.90;;;;;;6211572;23;20384;-69
2023/12/05 11:20:22;;;;;;;32.50;17.42;;;1.60;99.90;;;;;;6210733;23;20087;-68
2023/12/05 11:23:09;;;;;;;34.38;17.73;;;1.60;99.90;;;;;;6211137;23;20016;-69
2023/12/05 11:26:05;;;;;;;33.90;18.13;;;1.60;99.90;;;;;;6211533;23;20025;-68
2023/12/05 11:28:51;;;;;;;35.30;19.10;;;1.60;99.90;;;;;;6184745;23;20446;-68
2023/12/05 11:31:38;;;;;;;32.92;18.35;;;1.60;99.90;;;;;;6135201;23;20021;-68
2023/12/05 11:34:42;;;;;;;34.65;18.67;;;1.60;99.90;;;;;;6210786;23;20670;-69
2023/12/05 11:38:03;;;;;;;32.65;17.33;;;1.60;99.90;;;;;;6211561;23;20021;-68
2023/12/05 11:40:28;;;;;;;37.25;18.95;;;1.60;99.90;;;;;;6185014;23;20024;-68
2023/12/05 11:43:23;;;;;;;33.85;18.40;;;1.70;99.90;;;;;;6211381;23;20016;-68
2023/12/05 11:45:57;;;;;;;34.28;18.38;;;1.60;99.90;;;;;;6179279;23;20021;-68
2023/12/05 11:48:26;;;;;;;34.35;17.25;;;1.60;99.90;;;;;;6210821;23;20039;-68
2023/12/05 11:50:51;;;;;;;34.08;18.38;;;1.70;99.90;;;;;;6210944;23;20020;-68
2023/12/05 11:53:20;;;;;;;31.95;17.63;;;1.70;99.90;;;;;;6211264;23;20016;-67
2023/12/05 11:55:47;;;;;;;33.88;18.08;;;1.70;99.90;;;;;;6211079;23;20031;-67
2023/12/05 11:58:32;;;;;;;36.25;18.35;;;1.70;99.90;;;;;;6211348;23;20056;-67
2023/12/05 12:01:13;;;;;;;34.92;17.90;;;1.60;99.90;;;;;;6185571;23;20350;-67
2023/12/05 12:03:50;;;;;;;37.15;19.02;;;1.70;99.90;;;;;;6212598;23;20016;-68
2023/12/05 12:06:22;;;;;;;32.85;18.80;;;1.70;99.90;;;;;;6213539;23;20052;-67
2023/12/05 12:08:51;;;;;;;34.93;18.27;;;1.70;99.90;;;;;;6213594;23;20437;-67
2023/12/05 12:11:17;;;;;;;40.05;18.73;;;1.70;99.90;;;;;;6213503;23;20246;-67
2023/12/05 12:13:43;;;;;;;34.90;18.00;;;1.70;99.90;;;;;;6185431;23;20032;-68
2023/12/05 12:16:14;;;;;;;37.95;20.08;;;1.60;99.90;;;;;;6211970;23;20526;-67
2023/12/05 12:18:40;;;;;;;31.63;16.67;;;1.60;99.90;;;;;;6211801;23;20093;-67
2023/12/05 12:21:05;;;;;;;34.08;16.52;;;1.60;99.90;;;;;;6211470;23;20087;-67
2023/12/05 12:23:32;;;;;;;37.35;18.67;;;1.70;99.90;;;;;;6211789;23;20028;-67
2023/12/05 12:26:00;;;;;;;31.38;17.23;;;1.70;99.90;;;;;;6184580;23;20024;-69
2023/12/05 12:28:33;;;;;;;36.42;17.95;;;1.60;99.90;;;;;;6211310;23;20020;-69
2023/12/05 12:30:59;;;;;;;37.92;18.10;;;1.70;99.90;;;;;;6210932;23;20087;-68
2023/12/05 12:33:38;;;;;;;32.50;16.98;;;1.70;99.90;;;;;;6210817;23;20325;-68
2023/12/05 12:36:05;;;;;;;31.73;16.77;;;1.60;99.90;;;;;;6211109;23;20012;-68
2023/12/05 12:38:34;;;;;;;34.17;17.33;;;1.60;99.90;;;;;;6210979;23;20021;-68